CheckWX is a tool to help pilots better visualize weather data.  It is not intended as a substitute for an official pre-flight weather briefing.

21:23:47 UTC

KBMT METAR
Beaumont Municipal Airport
Beaumont, Texas, USA
Current

29 mins ago

KBMT 182055Z AUTO 04013G17KT 10SM SCT095 18/M03 A3013 RMK AO2 T01811028
Observed
Feb-18 @ 20:55 UTC
Wind
  • 040° at 13 KTS
  • Gusting to 17 KTS
Visibility
10 SM
Flight Rules
VFR
Cloud Levels
  • Scattered at 9,500' AGL
Temperature
18°C / 64°F
Dewpoint
-3°C / 27°F
Humidity
24%
Altimeter
30.13" Hg
Pressure
1020.32 hPa
Previous

49 mins ago

KBMT 182035Z AUTO 04010G16KT 10SM BKN095 18/M01 A3014 RMK AO2 T01761015
Observed
Feb-18 @ 20:35 UTC
Wind
  • 040° at 10 KTS
  • Gusting to 16 KTS
Visibility
10 SM
Flight Rules
VFR
Cloud Levels
  • Broken at 9,500' AGL
Temperature
18°C / 64°F
Dewpoint
-2°C / 28°F
Humidity
26%
Altimeter
30.14" Hg
Pressure
1020.62 hPa
Previous

1 hour ago

KBMT 182015Z AUTO 07009G15KT 10SM OVC085 17/M01 A3013 RMK AO2 T01731010
Observed
Feb-18 @ 20:15 UTC
Wind
  • 070° at 9 KTS
  • Gusting to 15 KTS
Visibility
10 SM
Flight Rules
VFR
Cloud Levels
  • Overcast at 8,500' AGL
Temperature
17°C / 63°F
Dewpoint
-1°C / 30°F
Humidity
30%
Altimeter
30.13" Hg
Pressure
1020.32 hPa